createdAt,value
2018-07-23T00:00:39.953Z,27.37
2018-07-23T00:03:43.044Z,28.53
2018-07-23T00:06:46.109Z,28.17
2018-07-23T00:09:49.176Z,32.57
2018-07-23T00:12:52.048Z,32.00
2018-07-23T00:15:55.125Z,35.50
2018-07-23T00:18:58.205Z,37.30
2018-07-23T00:22:01.281Z,40.83
2018-07-23T00:25:04.598Z,35.77
2018-07-23T00:28:07.680Z,38.80
2018-07-23T00:31:10.745Z,37.73
2018-07-23T00:34:13.822Z,37.93
2018-07-23T00:37:16.913Z,39.60
2018-07-23T00:40:19.751Z,39.97
2018-07-23T00:43:22.817Z,38.63
2018-07-23T00:46:25.913Z,38.73
2018-07-23T00:49:29.009Z,40.30
2018-07-23T00:52:32.111Z,36.63
2018-07-23T00:55:35.209Z,36.13
2018-07-23T00:58:38.304Z,35.40
2018-07-23T01:01:41.392Z,33.47
2018-07-23T01:04:44.485Z,33.73
2018-07-23T01:07:47.580Z,33.07
2018-07-23T01:10:50.669Z,32.83
2018-07-23T01:13:53.753Z,32.50
2018-07-23T01:16:56.824Z,34.37
2018-07-23T01:20:00.348Z,33.07
2018-07-23T01:23:03.436Z,34.70
2018-07-23T01:26:06.953Z,34.30
2018-07-23T01:29:10.044Z,33.80
2018-07-23T01:32:13.232Z,37.47
2018-07-23T01:35:16.310Z,35.37
2018-07-23T01:38:19.407Z,35.90
2018-07-23T01:41:22.574Z,35.10
2018-07-23T01:44:25.650Z,35.07
2018-07-23T01:47:29.561Z,35.77
2018-07-23T01:50:32.654Z,34.23
2018-07-23T01:53:35.718Z,37.33
2018-07-23T01:56:38.804Z,35.33
2018-07-23T01:59:41.686Z,35.87
2018-07-23T02:02:44.769Z,34.33
2018-07-23T02:05:47.832Z,36.83
2018-07-23T02:08:50.902Z,36.83
2018-07-23T02:11:53.993Z,38.93
2018-07-23T02:14:57.089Z,38.03
2018-07-23T02:18:00.154Z,38.60
2018-07-23T02:21:03.297Z,37.43
2018-07-23T02:24:06.589Z,40.03
2018-07-23T02:27:09.674Z,42.00
2018-07-23T02:30:12.757Z,40.90
2018-07-23T02:33:15.847Z,39.07
2018-07-23T02:36:19.062Z,40.57
2018-07-23T02:39:22.146Z,43.37
2018-07-23T02:42:25.229Z,49.27
2018-07-23T02:45:28.317Z,42.63
2018-07-23T02:48:31.413Z,43.53
2018-07-23T02:51:34.510Z,37.60
2018-07-23T02:54:37.602Z,39.50
2018-07-23T02:57:40.697Z,39.13
2018-07-23T03:00:43.778Z,35.87
2018-07-23T03:03:46.955Z,37.30
2018-07-23T03:06:50.063Z,40.73
2018-07-23T03:09:53.137Z,40.73
2018-07-23T03:12:56.237Z,42.53
2018-07-23T03:15:59.321Z,71.20
2018-07-23T03:19:02.423Z,58.03
2018-07-23T03:22:05.535Z,76.57
2018-07-23T03:25:08.598Z,87.97
2018-07-23T03:28:11.701Z,103.60
2018-07-23T03:31:14.790Z,93.30
2018-07-23T03:34:17.881Z,76.40
2018-07-23T03:37:20.942Z,54.33
2018-07-23T03:40:24.045Z,61.13
2018-07-23T03:43:27.114Z,77.57
2018-07-23T03:46:30.020Z,71.63
2018-07-23T03:49:33.080Z,34.30
2018-07-23T03:52:36.173Z,56.67
2018-07-23T03:55:39.260Z,77.03
2018-07-23T03:58:42.325Z,49.43
2018-07-23T04:01:45.426Z,36.30
2018-07-23T04:04:48.513Z,47.80
2018-07-23T04:07:51.605Z,48.93
2018-07-23T04:10:54.781Z,40.57
2018-07-23T04:13:57.817Z,39.47
2018-07-23T04:17:00.693Z,29.07
2018-07-23T04:20:03.993Z,25.57
2018-07-23T04:26:16.593Z,24.17
2018-07-23T04:29:19.660Z,21.97
2018-07-23T04:32:22.769Z,21.90
2018-07-23T04:35:25.976Z,22.20
2018-07-23T04:38:29.054Z,22.60
2018-07-23T04:41:32.148Z,20.27
2018-07-23T04:44:35.218Z,20.27
2018-07-23T04:47:38.305Z,20.33
2018-07-23T04:50:41.495Z,19.30
2018-07-23T04:53:44.505Z,19.33
2018-07-23T04:56:47.632Z,18.30
2018-07-23T04:59:50.773Z,20.03
2018-07-23T05:02:53.885Z,25.27
2018-07-23T05:05:57.058Z,18.23
2018-07-23T05:09:00.137Z,24.50
2018-07-23T05:12:03.024Z,20.67
2018-07-23T05:15:06.166Z,48.10
2018-07-23T05:18:09.359Z,25.03
2018-07-23T05:21:15.486Z,32.90
2018-07-23T05:24:18.578Z,40.40
2018-07-23T05:27:21.734Z,23.93
2018-07-23T05:30:25.005Z,19.00
2018-07-23T05:33:28.097Z,19.87
2018-07-23T05:36:31.293Z,18.33
2018-07-23T05:39:34.385Z,31.37
2018-07-23T05:42:37.492Z,20.33
2018-07-23T05:45:40.570Z,23.20
2018-07-23T05:48:43.644Z,19.67
2018-07-23T05:51:46.746Z,28.00
2018-07-23T05:54:49.796Z,16.53
2018-07-23T05:57:52.872Z,15.67
2018-07-23T06:00:55.732Z,15.67
2018-07-23T06:03:58.825Z,18.83
2018-07-23T06:07:02.143Z,19.03
2018-07-23T06:10:05.185Z,16.27
2018-07-23T06:13:08.352Z,14.77
2018-07-23T06:16:11.369Z,15.87
2018-07-23T06:19:14.465Z,28.80
2018-07-23T06:22:17.556Z,17.03
2018-07-23T06:25:20.654Z,16.47
2018-07-23T06:28:23.745Z,15.73
2018-07-23T06:31:26.838Z,14.83
2018-07-23T06:34:29.933Z,19.27
2018-07-23T06:37:33.243Z,17.43
2018-07-23T06:40:36.289Z,16.30
2018-07-23T06:43:39.364Z,17.33
2018-07-23T06:46:42.517Z,16.43
2018-07-23T06:49:45.544Z,16.20
2018-07-23T06:52:48.637Z,19.27
2018-07-23T06:55:51.701Z,19.10
2018-07-23T06:58:54.822Z,18.23
2018-07-23T07:01:57.897Z,20.20
2018-07-23T07:05:00.968Z,21.00
2018-07-23T07:08:04.059Z,21.47
2018-07-23T07:11:07.122Z,22.40
2018-07-23T07:14:10.198Z,30.83
2018-07-23T07:17:13.272Z,26.77
2018-07-23T07:20:16.336Z,26.50
2018-07-23T07:23:19.425Z,23.70
2018-07-23T07:26:22.265Z,27.20
2018-07-23T07:29:25.336Z,27.07
2018-07-23T07:32:28.401Z,46.30
2018-07-23T07:35:31.504Z,25.20
2018-07-23T07:38:34.629Z,23.77
2018-07-23T07:41:38.030Z,22.57
2018-07-23T07:44:41.136Z,21.23
2018-07-23T07:47:44.222Z,21.23
2018-07-23T07:50:47.296Z,19.07
2018-07-23T07:53:50.470Z,20.63
2018-07-23T07:56:53.564Z,19.93
2018-07-23T07:59:56.633Z,19.32
2018-07-23T08:02:59.697Z,17.05
2018-07-23T08:06:02.778Z,18.77
2018-07-23T08:09:07.821Z,17.50
2018-07-23T08:12:10.887Z,16.70
2018-07-23T08:15:14.006Z,16.00
2018-07-23T08:18:17.074Z,16.52
2018-07-23T08:21:20.157Z,15.95
2018-07-23T08:24:23.261Z,44.83
2018-07-23T08:27:26.357Z,19.50
2018-07-23T08:30:29.437Z,15.48
2018-07-23T08:33:32.544Z,14.03
2018-07-23T08:36:35.608Z,15.98
2018-07-23T08:39:38.709Z,14.98
2018-07-23T08:42:41.761Z,14.78
2018-07-23T08:45:44.841Z,14.83
2018-07-23T08:48:47.725Z,17.25
2018-07-23T08:51:50.608Z,15.95
2018-07-23T08:54:53.698Z,14.73
2018-07-23T08:57:56.632Z,17.40
2018-07-23T09:00:59.734Z,18.12
2018-07-23T09:04:02.786Z,15.40
2018-07-23T09:07:05.893Z,16.17
2018-07-23T09:10:08.976Z,15.83
2018-07-23T09:13:12.045Z,16.27
2018-07-23T09:16:15.125Z,16.20
2018-07-23T09:19:18.190Z,16.90
2018-07-23T09:22:21.259Z,16.17
2018-07-23T09:25:28.569Z,15.40
2018-07-23T09:28:31.661Z,22.90
2018-07-23T09:31:34.738Z,15.67
2018-07-23T09:37:47.361Z,16.17
2018-07-23T09:40:50.686Z,17.20
2018-07-23T09:43:53.756Z,15.33
2018-07-23T09:46:56.861Z,16.80
2018-07-23T09:50:00.033Z,15.90
2018-07-23T09:53:03.101Z,15.73
2018-07-23T09:56:06.653Z,14.90
2018-07-23T09:59:09.717Z,16.07
2018-07-23T10:02:12.795Z,15.40
2018-07-23T10:05:16.041Z,13.00
2018-07-23T10:08:19.119Z,13.97
2018-07-23T10:11:22.187Z,16.37
2018-07-23T10:14:25.270Z,36.77
2018-07-23T10:17:28.116Z,16.80
2018-07-23T10:20:31.185Z,13.23
2018-07-23T10:23:34.241Z,11.83
2018-07-23T10:26:37.311Z,13.03
2018-07-23T10:29:40.387Z,11.00
2018-07-23T10:32:43.433Z,34.03
2018-07-23T10:35:46.572Z,10.97
2018-07-23T10:38:49.425Z,10.20
2018-07-23T10:41:52.494Z,8.67
2018-07-23T10:44:55.725Z,8.43
2018-07-23T10:47:58.785Z,6.50
2018-07-23T10:51:01.890Z,6.80
2018-07-23T10:54:04.892Z,5.97
2018-07-23T10:57:07.974Z,6.60
2018-07-23T11:00:11.049Z,6.43
2018-07-23T11:03:14.106Z,17.47
2018-07-23T11:06:17.161Z,6.00
2018-07-23T11:09:20.216Z,6.10
2018-07-23T11:12:23.284Z,7.97
2018-07-23T11:15:26.341Z,6.60
2018-07-23T11:18:29.413Z,5.83
2018-07-23T11:21:32.509Z,6.00
2018-07-23T11:24:35.585Z,7.00
2018-07-23T11:27:38.616Z,6.03
2018-07-23T11:30:41.493Z,6.23
2018-07-23T11:33:44.653Z,6.33
2018-07-23T11:36:47.709Z,8.13
2018-07-23T11:39:50.777Z,7.30
2018-07-23T11:42:54.103Z,5.83
2018-07-23T11:45:57.189Z,6.83
2018-07-23T11:52:14.362Z,8.10
2018-07-23T11:55:12.990Z,6.70
2018-07-23T11:58:15.843Z,7.03
2018-07-23T12:01:19.089Z,6.43
2018-07-23T12:04:22.198Z,6.23
2018-07-23T12:07:31.261Z,7.67
2018-07-23T12:10:34.317Z,7.07
2018-07-23T12:13:37.388Z,7.87
2018-07-23T12:16:40.481Z,6.47
2018-07-23T12:19:43.440Z,7.10
2018-07-23T12:22:46.499Z,6.27
2018-07-23T12:25:49.576Z,6.87
2018-07-23T12:28:52.654Z,7.37
2018-07-23T12:31:55.745Z,6.20
2018-07-23T12:34:58.855Z,6.10
2018-07-23T12:38:01.933Z,5.97
2018-07-23T12:41:05.155Z,6.10
2018-07-23T12:44:08.525Z,6.47
2018-07-23T12:47:11.773Z,6.03
2018-07-23T12:50:14.775Z,7.23
2018-07-23T12:53:17.833Z,6.93
2018-07-23T12:56:20.889Z,6.30
2018-07-23T12:59:23.949Z,6.80
2018-07-23T13:02:27.026Z,5.80
2018-07-23T13:05:32.438Z,7.67
2018-07-23T13:08:35.544Z,6.30
2018-07-23T13:11:38.632Z,6.20
2018-07-23T13:14:41.668Z,5.40
2018-07-23T13:17:44.729Z,4.97
2018-07-23T13:20:47.805Z,5.80
2018-07-23T13:23:50.844Z,6.93
2018-07-23T13:26:53.705Z,6.13
2018-07-23T13:29:56.746Z,6.13
2018-07-23T13:32:59.817Z,7.47
2018-07-23T13:36:02.873Z,5.50
2018-07-23T13:39:08.513Z,5.90
2018-07-23T13:42:11.593Z,6.10
2018-07-23T13:45:14.685Z,6.03
2018-07-23T13:48:17.996Z,7.90
2018-07-23T13:51:21.048Z,5.77
2018-07-23T13:54:24.173Z,5.53
2018-07-23T13:57:27.442Z,5.37
2018-07-23T14:00:30.833Z,6.23
2018-07-23T14:03:34.038Z,5.27
2018-07-23T14:06:37.319Z,5.57
2018-07-23T14:09:40.502Z,6.00
2018-07-23T14:12:43.725Z,7.03
2018-07-23T14:15:46.920Z,5.30
2018-07-23T14:18:50.173Z,6.07
2018-07-23T14:21:53.142Z,6.80
2018-07-23T14:24:56.408Z,6.90
2018-07-23T14:27:59.754Z,7.27
2018-07-23T14:31:02.801Z,7.10
2018-07-23T14:34:06.187Z,7.10
2018-07-23T14:37:09.396Z,7.30
2018-07-23T14:40:16.789Z,9.47
2018-07-23T14:43:20.314Z,6.83
2018-07-23T14:46:23.505Z,6.83
2018-07-23T14:49:26.685Z,6.90
2018-07-23T14:52:29.929Z,7.17
2018-07-23T14:55:33.106Z,7.03
2018-07-23T14:58:36.258Z,8.03
2018-07-23T15:01:39.389Z,8.27
2018-07-23T15:04:42.310Z,6.93
2018-07-23T15:07:45.521Z,7.57
2018-07-23T15:10:48.714Z,8.70
2018-07-23T15:13:51.944Z,6.90
2018-07-23T15:16:55.126Z,8.00
2018-07-23T15:19:58.339Z,7.00
2018-07-23T15:23:01.327Z,6.20
2018-07-23T15:26:04.502Z,6.33
2018-07-23T15:29:07.851Z,6.17
2018-07-23T15:32:10.967Z,6.17
2018-07-23T15:35:14.110Z,6.07
2018-07-23T15:38:17.297Z,5.67
2018-07-23T15:41:20.457Z,5.43
2018-07-23T15:44:23.754Z,5.60
2018-07-23T15:47:26.845Z,5.97
2018-07-23T15:50:30.094Z,5.63
2018-07-23T15:53:33.396Z,9.00
2018-07-23T15:56:36.677Z,6.70
2018-07-23T15:59:39.894Z,6.07
2018-07-23T16:02:43.069Z,6.00
2018-07-23T16:05:46.322Z,6.70
2018-07-23T16:08:49.549Z,5.97
2018-07-23T16:11:52.477Z,7.17
2018-07-23T16:14:55.662Z,7.13
2018-07-23T16:17:58.878Z,6.10
2018-07-23T16:21:02.073Z,7.37
2018-07-23T16:24:05.209Z,8.60
2018-07-23T16:27:08.101Z,8.73
2018-07-23T16:30:11.214Z,7.97
2018-07-23T16:33:14.266Z,8.50
2018-07-23T16:36:17.312Z,8.13
2018-07-23T16:39:20.392Z,6.37
2018-07-23T16:42:23.458Z,7.27
2018-07-23T16:45:26.546Z,6.30
2018-07-23T16:48:29.431Z,7.23
2018-07-23T16:51:32.598Z,7.60
2018-07-23T16:54:35.619Z,9.70
2018-07-23T16:57:38.454Z,7.07
2018-07-23T17:00:41.536Z,7.27
2018-07-23T17:03:44.592Z,7.10
2018-07-23T17:06:47.674Z,7.13
2018-07-23T17:09:50.627Z,8.23
2018-07-23T17:12:53.793Z,7.70
2018-07-23T17:15:56.868Z,8.00
2018-07-23T17:18:59.965Z,9.80
2018-07-23T17:22:03.061Z,13.13
2018-07-23T17:25:06.316Z,10.00
2018-07-23T17:28:09.187Z,8.13
2018-07-23T17:31:12.337Z,8.17
2018-07-23T17:34:16.261Z,8.13
2018-07-23T17:37:20.342Z,8.00
2018-07-23T17:40:23.848Z,8.20
2018-07-23T17:43:27.366Z,8.37
2018-07-23T17:46:30.800Z,10.23
2018-07-23T17:49:33.987Z,8.30
2018-07-23T17:52:37.063Z,8.37
2018-07-23T17:55:40.125Z,8.57
2018-07-23T17:58:43.200Z,8.60
2018-07-23T18:01:48.341Z,8.70
2018-07-23T18:04:51.436Z,7.80
2018-07-23T18:07:54.492Z,8.13
2018-07-23T18:10:57.583Z,8.60
2018-07-23T18:14:00.645Z,7.83
2018-07-23T18:17:03.720Z,8.20
2018-07-23T18:20:06.806Z,8.10
2018-07-23T18:23:09.880Z,9.53
2018-07-23T18:26:12.960Z,11.07
2018-07-23T18:29:16.030Z,10.20
2018-07-23T18:32:19.123Z,9.87
2018-07-23T18:35:22.253Z,8.13
2018-07-23T18:38:25.334Z,9.90
2018-07-23T18:41:28.357Z,8.23
2018-07-23T18:44:31.413Z,8.20
2018-07-23T18:47:34.298Z,7.33
2018-07-23T18:50:37.153Z,8.80
2018-07-23T18:53:40.216Z,8.40
2018-07-23T18:56:48.129Z,8.57
2018-07-23T18:59:51.194Z,8.40
2018-07-23T19:02:54.220Z,8.07
2018-07-23T19:05:57.284Z,7.50
2018-07-23T19:09:00.341Z,8.27
2018-07-23T19:12:03.200Z,7.10
2018-07-23T19:15:06.690Z,9.83
2018-07-23T19:18:09.991Z,9.17
2018-07-23T19:21:13.178Z,7.87
2018-07-23T19:24:16.299Z,8.30
2018-07-23T19:27:19.528Z,12.37
2018-07-23T19:30:22.754Z,8.07
2018-07-23T19:33:25.974Z,7.67
2018-07-23T19:36:29.385Z,7.70
2018-07-23T19:39:32.543Z,9.60
2018-07-23T19:42:35.753Z,8.50
2018-07-23T19:45:38.957Z,8.40
2018-07-23T19:48:42.174Z,8.87
2018-07-23T19:51:45.117Z,8.90
2018-07-23T19:54:48.353Z,8.07
2018-07-23T19:57:51.345Z,7.63
2018-07-23T20:00:54.521Z,9.37
2018-07-23T20:03:57.690Z,7.40
2018-07-23T20:07:00.950Z,7.23
2018-07-23T20:10:04.726Z,7.43
2018-07-23T20:13:08.191Z,6.87
2018-07-23T20:16:11.422Z,6.83
2018-07-23T20:19:14.571Z,7.40
2018-07-23T20:22:17.777Z,7.63
2018-07-23T20:25:21.002Z,11.07
2018-07-23T20:28:30.425Z,7.57
2018-07-23T20:31:33.622Z,7.20
2018-07-23T20:34:36.895Z,7.60
2018-07-23T20:37:40.141Z,6.10
2018-07-23T20:40:43.058Z,6.70
2018-07-23T20:43:46.245Z,6.57
2018-07-23T20:46:49.433Z,6.80
2018-07-23T20:49:52.781Z,6.30
2018-07-23T20:52:56.074Z,5.77
2018-07-23T20:55:59.321Z,6.50
2018-07-23T20:59:02.590Z,6.63
2018-07-23T21:02:05.594Z,8.97
2018-07-23T21:05:08.758Z,6.80
2018-07-23T21:08:12.050Z,6.00
2018-07-23T21:11:15.256Z,6.00
2018-07-23T21:14:18.457Z,6.07
2018-07-23T21:17:21.430Z,5.93
2018-07-23T21:20:24.693Z,6.67
2018-07-23T21:23:27.865Z,6.53
2018-07-23T21:26:31.092Z,5.40
2018-07-23T21:29:34.385Z,6.03
2018-07-23T21:32:37.569Z,5.60
2018-07-23T21:35:40.774Z,5.37
2018-07-23T21:38:44.066Z,7.60
2018-07-23T21:41:47.297Z,7.70
2018-07-23T21:44:50.337Z,5.40
2018-07-23T21:47:53.625Z,6.10
2018-07-23T21:50:56.814Z,6.20
2018-07-23T21:54:00.078Z,6.07
2018-07-23T21:57:03.238Z,5.77
2018-07-23T22:00:11.542Z,7.20
2018-07-23T22:03:14.858Z,7.13
2018-07-23T22:06:22.690Z,5.63
2018-07-23T22:09:25.703Z,6.13
2018-07-23T22:12:28.977Z,6.27
2018-07-23T22:15:32.058Z,5.97
2018-07-23T22:18:35.342Z,6.07
2018-07-23T22:21:38.591Z,6.13
2018-07-23T22:24:41.919Z,6.37
2018-07-23T22:27:45.042Z,6.83
2018-07-23T22:30:47.931Z,6.37
2018-07-23T22:33:50.885Z,5.93
2018-07-23T22:36:54.027Z,6.80
2018-07-23T22:39:57.269Z,6.43
2018-07-23T22:43:00.410Z,5.97
2018-07-23T22:46:03.678Z,6.17
2018-07-23T22:49:06.958Z,5.57
2018-07-23T22:52:10.118Z,6.20
2018-07-23T22:55:13.398Z,6.67
2018-07-23T22:58:16.710Z,6.67
2018-07-23T23:01:20.294Z,6.27
2018-07-23T23:04:23.508Z,7.27
2018-07-23T23:07:26.757Z,6.37
2018-07-23T23:10:29.909Z,6.30
2018-07-23T23:13:33.129Z,7.57
2018-07-23T23:16:36.330Z,6.20
2018-07-23T23:19:40.170Z,6.63
2018-07-23T23:22:43.291Z,6.03
2018-07-23T23:25:46.494Z,6.93
2018-07-23T23:28:49.669Z,5.97
2018-07-23T23:31:52.881Z,6.30
2018-07-23T23:34:55.983Z,6.80
2018-07-23T23:37:59.069Z,7.20
2018-07-23T23:41:02.131Z,6.53
2018-07-23T23:44:05.236Z,6.07
2018-07-23T23:47:08.298Z,7.93
2018-07-23T23:50:11.152Z,6.67
2018-07-23T23:53:14.205Z,6.43
2018-07-23T23:56:17.310Z,6.40
2018-07-23T23:59:20.373Z,6.20
